Time;durP1;ratioP1;P1;durP2;ratioP2;P2;SDS_P1;SDS_P2;PMS_P1;PMS_P2;Temp;Humidity;BMP_temperature;BMP_pressure;BME280_temperature;BME280_humidity;BME280_pressure;Samples;Min_cycle;Max_cycle;Signal;HPM_P1;HPM_P2
2021/07/17 00:02:18;;;;;;;21.58;9.63;;;20.30;95.30;;;;;;4990752;28;20124;-76
2021/07/17 00:04:44;;;;;;;23.38;10.15;;;20.30;95.40;;;;;;4991185;28;20026;-76
2021/07/17 00:07:10;;;;;;;23.83;8.95;;;20.20;95.50;;;;;;4990858;28;20509;-76
2021/07/17 00:09:36;;;;;;;29.55;9.93;;;20.10;95.60;;;;;;4990286;28;20030;-76
2021/07/17 00:12:02;;;;;;;29.15;11.10;;;20.10;95.70;;;;;;4990336;28;20073;-77
2021/07/17 00:14:28;;;;;;;22.95;10.57;;;20.00;95.70;;;;;;4989391;28;20068;-76
2021/07/17 00:16:53;;;;;;;22.90;10.00;;;19.90;95.90;;;;;;4990555;28;20801;-76
2021/07/17 00:19:19;;;;;;;26.67;9.95;;;19.70;96.00;;;;;;4990474;28;20034;-76
2021/07/17 00:21:45;;;;;;;37.83;11.18;;;19.60;96.10;;;;;;4990484;28;20611;-76
2021/07/17 00:24:10;;;;;;;26.65;10.23;;;19.50;96.20;;;;;;4973071;28;20037;-77
2021/07/17 00:26:36;;;;;;;25.50;10.15;;;19.50;96.40;;;;;;4990711;28;20038;-76
2021/07/17 00:29:02;;;;;;;37.80;11.57;;;19.40;96.60;;;;;;4990188;28;20030;-76
2021/07/17 00:31:27;;;;;;;29.88;10.77;;;19.30;96.70;;;;;;4971963;28;20065;-76
2021/07/17 00:33:53;;;;;;;27.30;10.63;;;19.30;96.70;;;;;;4981724;28;20037;-76
2021/07/17 00:36:18;;;;;;;35.47;10.40;;;19.40;96.70;;;;;;4990487;28;20050;-76
2021/07/17 00:38:44;;;;;;;38.90;13.60;;;19.50;96.50;;;;;;4990177;28;20022;-76
2021/07/17 00:41:09;;;;;;;29.55;11.55;;;19.40;96.50;;;;;;4990169;28;20026;-76
2021/07/17 00:43:35;;;;;;;33.70;12.05;;;19.40;96.50;;;;;;4972895;28;20027;-76
2021/07/17 00:46:00;;;;;;;33.55;12.60;;;19.40;96.50;;;;;;4989084;28;20038;-77
2021/07/17 00:48:27;;;;;;;25.02;11.02;;;19.30;96.60;;;;;;4989879;28;20054;-76
2021/07/17 00:50:52;;;;;;;26.80;11.93;;;19.20;96.70;;;;;;4988875;28;20938;-76
2021/07/17 00:53:18;;;;;;;29.40;11.00;;;19.10;96.90;;;;;;4989504;28;20041;-77
2021/07/17 00:55:49;;;;;;;28.67;12.77;;;19.10;97.00;;;;;;4972803;28;20076;-76
2021/07/17 00:58:16;;;;;;;36.63;13.38;;;19.00;97.00;;;;;;4988454;28;20019;-76
2021/07/17 01:00:42;;;;;;;30.00;11.93;;;19.00;97.10;;;;;;4989956;28;20026;-77
2021/07/17 01:03:09;;;;;;;31.25;13.63;;;19.00;97.00;;;;;;5012626;23;20543;-74
2021/07/17 01:05:36;;;;;;;34.35;13.48;;;19.10;97.00;;;;;;4998564;28;20049;-74
2021/07/17 01:08:02;;;;;;;32.72;11.98;;;19.30;96.90;;;;;;4999360;28;20026;-74
2021/07/17 01:10:28;;;;;;;40.03;13.82;;;19.40;96.70;;;;;;4997801;28;20064;-74
2021/07/17 01:12:54;;;;;;;31.93;12.77;;;19.40;96.50;;;;;;4999588;28;20065;-74
2021/07/17 01:15:19;;;;;;;32.63;12.48;;;19.50;96.50;;;;;;4999382;28;20031;-74
2021/07/17 01:17:46;;;;;;;22.02;11.35;;;19.60;96.40;;;;;;4997752;28;20516;-74
2021/07/17 01:20:15;;;;;;;25.90;12.27;;;19.60;96.30;;;;;;4982503;28;20076;-74
2021/07/17 01:22:42;;;;;;;33.65;12.45;;;19.70;96.10;;;;;;4999304;28;20026;-73
2021/07/17 01:25:11;;;;;;;26.33;13.15;;;19.70;96.10;;;;;;4999597;28;20030;-74
2021/07/17 01:27:37;;;;;;;31.55;11.52;;;19.60;96.10;;;;;;4999472;28;20052;-74
2021/07/17 01:30:06;;;;;;;23.05;13.38;;;19.50;96.30;;;;;;4999324;28;20121;-74
2021/07/17 01:32:32;;;;;;;38.47;14.75;;;19.40;96.30;;;;;;4999156;28;20035;-74
2021/07/17 01:34:57;;;;;;;29.90;12.82;;;19.40;96.40;;;;;;4998194;28;20125;-74
2021/07/17 01:37:23;;;;;;;30.15;13.18;;;19.40;96.30;;;;;;4997952;28;20366;-74
2021/07/17 01:39:48;;;;;;;30.77;11.85;;;19.40;96.40;;;;;;4999153;28;20033;-73
2021/07/17 01:42:14;;;;;;;26.90;13.73;;;19.40;96.30;;;;;;4999425;28;20029;-74
2021/07/17 01:44:44;;;;;;;29.35;13.25;;;19.40;96.30;;;;;;4999356;28;20038;-74
2021/07/17 01:47:13;;;;;;;29.23;14.35;;;19.40;96.30;;;;;;4981922;28;20017;-74
2021/07/17 01:49:39;;;;;;;25.85;13.55;;;19.40;96.20;;;;;;4981252;28;20070;-74
2021/07/17 01:52:07;;;;;;;33.10;13.40;;;19.30;96.20;;;;;;4998201;28;20069;-73
2021/07/17 01:54:37;;;;;;;32.28;13.30;;;19.30;96.30;;;;;;4999308;28;20022;-74
2021/07/17 01:57:04;;;;;;;38.03;15.23;;;19.20;96.40;;;;;;4998992;28;20018;-73
2021/07/17 01:59:35;;;;;;;31.42;14.43;;;19.20;96.40;;;;;;4998771;28;20026;-74
2021/07/17 02:02:01;;;;;;;36.58;15.75;;;19.10;96.50;;;;;;4998693;28;20022;-74
2021/07/17 02:04:26;;;;;;;31.20;14.57;;;19.10;96.50;;;;;;5000173;28;20065;-74
2021/07/17 02:06:52;;;;;;;27.50;13.50;;;19.00;96.60;;;;;;5002111;28;21522;-74
2021/07/17 02:09:17;;;;;;;34.30;15.23;;;19.00;96.60;;;;;;5002933;28;20046;-73
2021/07/17 02:11:43;;;;;;;33.90;14.18;;;18.90;97.00;;;;;;5002638;28;20380;-73
2021/07/17 02:14:08;;;;;;;36.30;15.38;;;18.80;96.80;;;;;;5002306;28;20030;-74
2021/07/17 02:16:34;;;;;;;33.78;15.23;;;18.80;96.90;;;;;;5002445;28;20030;-74
2021/07/17 02:19:19;;;;;;;31.88;15.65;;;18.80;96.90;;;;;;4984516;28;20030;-73
2021/07/17 02:21:50;;;;;;;30.05;13.93;;;18.90;96.80;;;;;;4985776;28;20036;-74
2021/07/17 02:24:17;;;;;;;34.40;15.60;;;18.90;96.80;;;;;;4984650;28;20038;-73
2021/07/17 02:26:44;;;;;;;28.80;13.82;;;18.90;96.70;;;;;;5002619;28;20026;-73
2021/07/17 02:29:10;;;;;;;35.80;14.82;;;19.00;96.60;;;;;;5001750;28;20030;-74
2021/07/17 02:31:36;;;;;;;30.50;13.95;;;18.90;96.50;;;;;;5002389;28;20026;-74
2021/07/17 02:34:04;;;;;;;33.53;14.98;;;18.80;96.60;;;;;;5002275;28;20489;-74
2021/07/17 02:36:30;;;;;;;31.65;13.63;;;18.70;96.60;;;;;;5002048;28;20303;-74
2021/07/17 02:38:55;;;;;;;25.60;13.10;;;18.70;96.80;;;;;;5002144;28;20032;-74
2021/07/17 02:41:22;;;;;;;27.83;13.88;;;18.70;96.80;;;;;;5000511;28;20028;-73
2021/07/17 02:43:48;;;;;;;34.15;15.18;;;18.80;96.70;;;;;;5001766;28;20034;-74
2021/07/17 02:46:13;;;;;;;21.98;13.70;;;18.80;96.60;;;;;;4984306;28;20445;-74
2021/07/17 02:48:39;;;;;;;31.02;15.35;;;18.80;96.50;;;;;;5000793;28;20026;-74
2021/07/17 02:51:05;;;;;;;29.80;13.98;;;18.80;96.60;;;;;;5001671;28;20038;-75
2021/07/17 02:53:30;;;;;;;33.55;14.80;;;18.80;96.60;;;;;;5002239;28;20104;-74
2021/07/17 02:55:56;;;;;;;38.95;15.18;;;18.80;96.70;;;;;;5002041;28;20178;-74
2021/07/17 02:58:21;;;;;;;31.80;12.93;;;18.80;96.60;;;;;;5002175;28;20450;-74
2021/07/17 03:00:53;;;;;;;30.42;14.27;;;18.80;96.60;;;;;;5000910;28;20026;-74
2021/07/17 03:03:19;;;;;;;25.63;12.32;;;18.80;96.40;;;;;;5002303;28;20243;-74
2021/07/17 03:05:44;;;;;;;24.45;13.05;;;18.80;96.50;;;;;;5001710;28;20388;-75
2021/07/17 03:08:12;;;;;;;24.52;13.60;;;18.70;96.60;;;;;;5002199;28;20079;-76
2021/07/17 03:10:38;;;;;;;28.23;14.48;;;18.70;96.60;;;;;;5001611;28;20060;-74
2021/07/17 03:13:03;;;;;;;25.10;12.20;;;18.70;96.60;;;;;;5001454;28;20069;-75
2021/07/17 03:15:29;;;;;;;29.08;14.35;;;18.70;96.60;;;;;;5000852;28;20124;-75
2021/07/17 03:17:54;;;;;;;36.67;14.90;;;18.80;96.60;;;;;;5000326;28;20142;-75
2021/07/17 03:20:20;;;;;;;33.28;15.88;;;18.80;96.50;;;;;;4983407;28;20018;-75
2021/07/17 03:22:45;;;;;;;27.17;13.80;;;18.80;96.50;;;;;;5000485;28;20074;-75
2021/07/17 03:25:11;;;;;;;32.92;15.05;;;18.60;96.70;;;;;;5002221;28;20475;-75
2021/07/17 03:27:37;;;;;;;28.30;14.60;;;18.70;96.60;;;;;;4983741;28;20026;-75
2021/07/17 03:30:05;;;;;;;32.15;15.63;;;18.60;96.80;;;;;;5001389;28;20113;-74
2021/07/17 03:32:31;;;;;;;24.20;13.05;;;18.50;96.90;;;;;;4999630;28;20502;-75
2021/07/17 03:34:57;;;;;;;28.38;14.23;;;18.50;97.00;;;;;;4983871;28;20120;-75
2021/07/17 03:37:23;;;;;;;40.78;17.08;;;18.50;97.00;;;;;;5000662;28;20026;-75
2021/07/17 03:39:49;;;;;;;23.40;14.63;;;18.50;97.10;;;;;;5001513;28;20029;-75
2021/07/17 03:42:15;;;;;;;21.63;13.85;;;18.50;97.10;;;;;;5000836;28;20030;-75
2021/07/17 03:44:40;;;;;;;33.03;16.27;;;18.60;97.10;;;;;;5001174;28;20081;-75
2021/07/17 03:47:06;;;;;;;37.03;14.00;;;18.60;96.90;;;;;;5001158;28;20036;-75
2021/07/17 03:49:31;;;;;;;31.08;15.27;;;18.60;97.00;;;;;;5001101;28;20396;-76
2021/07/17 03:51:57;;;;;;;35.78;16.90;;;18.60;97.10;;;;;;5001043;28;20496;-75
2021/07/17 03:54:22;;;;;;;29.17;15.00;;;18.50;97.20;;;;;;5000277;28;20030;-75
2021/07/17 03:56:48;;;;;;;35.97;16.23;;;18.50;97.20;;;;;;5001371;28;20045;-75
2021/07/17 03:59:13;;;;;;;27.83;14.15;;;18.60;97.20;;;;;;5000824;28;20358;-75
2021/07/17 04:01:39;;;;;;;37.83;16.50;;;18.60;97.20;;;;;;5000588;28;20041;-75
2021/07/17 04:04:05;;;;;;;31.25;15.30;;;18.60;97.10;;;;;;5000685;28;20029;-74
2021/07/17 04:06:31;;;;;;;41.08;18.25;;;18.50;97.10;;;;;;5000392;28;20034;-75
2021/07/17 04:08:56;;;;;;;44.08;18.17;;;18.50;97.40;;;;;;5000754;28;20481;-75
2021/07/17 04:11:22;;;;;;;36.30;17.10;;;18.40;97.50;;;;;;4999710;28;20100;-75
2021/07/17 04:13:47;;;;;;;36.00;17.88;;;18.30;97.60;;;;;;5000404;28;20484;-75
2021/07/17 04:16:13;;;;;;;32.53;17.15;;;18.40;97.60;;;;;;4999021;28;20040;-74
2021/07/17 04:18:38;;;;;;;32.40;16.85;;;18.40;97.70;;;;;;5000173;28;20085;-75
2021/07/17 04:21:04;;;;;;;33.92;18.42;;;18.30;97.70;;;;;;5000757;28;20034;-75
2021/07/17 04:23:29;;;;;;;41.50;19.38;;;18.40;97.70;;;;;;5000082;28;20117;-76
2021/07/17 04:25:56;;;;;;;36.83;17.95;;;18.40;97.80;;;;;;5000016;28;20038;-75
2021/07/17 04:28:21;;;;;;;32.70;17.80;;;18.30;97.80;;;;;;4999653;28;20018;-74
2021/07/17 04:30:47;;;;;;;32.42;17.23;;;18.30;97.90;;;;;;5000491;28;20033;-75
2021/07/17 04:33:12;;;;;;;36.13;16.73;;;18.40;97.80;;;;;;4998714;28;20492;-75
2021/07/17 04:35:40;;;;;;;42.15;18.73;;;18.40;97.80;;;;;;4982769;28;20351;-75
2021/07/17 04:38:06;;;;;;;28.42;18.08;;;18.30;98.00;;;;;;5000221;28;20408;-75
2021/07/17 04:40:31;;;;;;;41.85;17.42;;;18.20;98.30;;;;;;4999894;28;20022;-74
2021/07/17 04:42:57;;;;;;;33.75;17.17;;;18.20;98.20;;;;;;5000074;28;20021;-75
2021/07/17 04:45:22;;;;;;;46.40;18.70;;;18.20;98.20;;;;;;4999905;28;20503;-75
2021/07/17 04:47:48;;;;;;;26.92;15.00;;;18.40;98.10;;;;;;4982015;28;20125;-75
2021/07/17 04:50:14;;;;;;;38.65;17.33;;;18.50;98.00;;;;;;4999945;28;20527;-75
2021/07/17 04:52:40;;;;;;;43.08;18.10;;;18.60;97.70;;;;;;5001867;28;20026;-75
2021/07/17 04:55:06;;;;;;;31.42;17.17;;;18.60;97.50;;;;;;5000901;28;20600;-75
2021/07/17 04:57:32;;;;;;;34.28;17.02;;;18.50;97.70;;;;;;5001020;28;20056;-75
2021/07/17 04:59:57;;;;;;;48.72;19.05;;;18.40;97.80;;;;;;5002051;28;20026;-74
2021/07/17 05:02:23;;;;;;;52.03;20.42;;;18.40;97.90;;;;;;5000324;28;20065;-74
2021/07/17 05:04:48;;;;;;;42.92;18.90;;;18.30;98.00;;;;;;5001183;28;20408;-75
2021/07/17 05:07:14;;;;;;;45.90;19.88;;;18.20;98.30;;;;;;5002135;28;20516;-75
2021/07/17 05:09:39;;;;;;;40.50;19.45;;;18.20;98.40;;;;;;5000218;28;20030;-75
2021/07/17 05:12:05;;;;;;;42.17;21.30;;;18.10;98.60;;;;;;5000068;28;20385;-75
2021/07/17 05:14:31;;;;;;;47.40;19.42;;;18.10;98.70;;;;;;4998124;28;20397;-74
2021/07/17 05:16:56;;;;;;;35.95;17.10;;;18.00;98.80;;;;;;4981944;28;20060;-75
2021/07/17 05:19:22;;;;;;;35.05;18.70;;;18.10;98.80;;;;;;5001082;28;20113;-75
2021/07/17 05:21:47;;;;;;;44.67;19.13;;;18.30;98.60;;;;;;5000545;28;20042;-74
2021/07/17 05:24:13;;;;;;;40.17;21.08;;;18.30;98.50;;;;;;5000592;28;20057;-74
2021/07/17 05:26:38;;;;;;;33.50;18.73;;;18.30;98.40;;;;;;5000007;28;20056;-75
2021/07/17 05:29:04;;;;;;;46.08;18.52;;;18.40;98.30;;;;;;4981414;28;20080;-75
2021/07/17 05:31:29;;;;;;;41.60;19.58;;;18.50;98.20;;;;;;4999753;28;20840;-75
2021/07/17 05:33:55;;;;;;;41.47;18.70;;;18.50;98.10;;;;;;4997913;28;20113;-75
2021/07/17 05:36:21;;;;;;;45.78;20.92;;;18.50;98.20;;;;;;4983055;28;20053;-75
2021/07/17 05:38:46;;;;;;;42.28;17.48;;;18.50;98.20;;;;;;5001947;28;20069;-75
2021/07/17 05:41:12;;;;;;;37.88;19.88;;;18.40;98.20;;;;;;5004256;28;20105;-75
2021/07/17 05:43:37;;;;;;;47.25;20.88;;;18.40;98.30;;;;;;5003620;28;20493;-75
2021/07/17 05:46:03;;;;;;;44.00;19.02;;;18.40;98.40;;;;;;5004416;28;20030;-75
2021/07/17 05:48:28;;;;;;;41.30;20.70;;;18.50;98.40;;;;;;5002139;28;20048;-75
2021/07/17 05:50:54;;;;;;;43.38;18.95;;;18.50;98.20;;;;;;5002440;28;20021;-74
2021/07/17 05:53:21;;;;;;;49.25;21.50;;;18.60;98.20;;;;;;5002861;28;20037;-75
2021/07/17 05:55:47;;;;;;;40.88;18.77;;;18.70;98.00;;;;;;5003823;28;20045;-75
2021/07/17 05:58:12;;;;;;;43.38;19.17;;;18.70;98.00;;;;;;5003321;28;20482;-74
2021/07/17 06:00:38;;;;;;;43.53;19.60;;;18.80;97.90;;;;;;5002442;28;20092;-75
2021/07/17 06:03:04;;;;;;;37.50;18.65;;;18.90;97.80;;;;;;5003415;28;20038;-75
2021/07/17 06:05:29;;;;;;;51.28;20.95;;;18.90;97.80;;;;;;5002852;28;20026;-75
2021/07/17 06:07:55;;;;;;;43.88;20.08;;;19.00;97.60;;;;;;4985718;28;20037;-75
2021/07/17 06:10:20;;;;;;;42.08;21.30;;;19.00;97.50;;;;;;5001970;28;20041;-74
2021/07/17 06:12:46;;;;;;;49.78;19.73;;;19.00;97.50;;;;;;5002833;28;20320;-75
2021/07/17 06:15:12;;;;;;;43.13;19.63;;;19.10;97.20;;;;;;5002766;28;20030;-75
2021/07/17 06:17:37;;;;;;;35.17;17.48;;;19.00;97.30;;;;;;5002777;28;20102;-74
2021/07/17 06:20:04;;;;;;;40.15;19.70;;;19.00;97.50;;;;;;4985492;28;20390;-75
2021/07/17 06:22:29;;;;;;;38.28;19.75;;;19.00;97.50;;;;;;5002301;28;20426;-74
2021/07/17 06:24:55;;;;;;;44.25;19.52;;;19.00;97.50;;;;;;5002911;28;20109;-74
2021/07/17 06:27:20;;;;;;;44.10;18.65;;;19.10;97.50;;;;;;5003315;28;20038;-75
2021/07/17 06:29:46;;;;;;;39.45;18.92;;;19.20;97.40;;;;;;5002076;28;20022;-74
2021/07/17 06:32:11;;;;;;;40.53;16.80;;;19.20;97.20;;;;;;5001318;28;20121;-74
2021/07/17 06:34:37;;;;;;;39.63;17.90;;;19.30;97.10;;;;;;4983706;28;20018;-74
2021/07/17 06:37:02;;;;;;;44.17;19.27;;;19.40;97.10;;;;;;5002031;28;20040;-75
2021/07/17 06:39:28;;;;;;;43.47;17.77;;;19.60;96.80;;;;;;4984261;28;20069;-75
2021/07/17 06:41:54;;;;;;;39.92;18.65;;;19.60;96.70;;;;;;5003005;28;20502;-74
2021/07/17 06:44:19;;;;;;;39.30;19.52;;;19.60;96.80;;;;;;5001202;28;20030;-75
2021/07/17 06:46:44;;;;;;;49.00;20.65;;;19.60;96.70;;;;;;5002009;28;20038;-74
2021/07/17 06:49:10;;;;;;;38.65;18.20;;;19.70;96.60;;;;;;4999086;28;20029;-74
2021/07/17 06:51:36;;;;;;;36.25;18.48;;;19.70;96.50;;;;;;5002013;28;20045;-75
2021/07/17 06:54:02;;;;;;;36.95;17.00;;;19.70;96.40;;;;;;5000830;28;20045;-74
2021/07/17 06:56:28;;;;;;;32.85;16.65;;;19.70;96.50;;;;;;4984337;28;20093;-75
2021/07/17 06:58:53;;;;;;;46.42;17.98;;;19.70;96.50;;;;;;5002646;28;20422;-75
2021/07/17 07:01:20;;;;;;;40.42;18.85;;;19.70;96.40;;;;;;5001905;28;20031;-75
2021/07/17 07:03:45;;;;;;;35.00;15.85;;;19.80;96.40;;;;;;5028327;23;20045;-70
2021/07/17 07:06:11;;;;;;;41.90;18.10;;;19.90;96.20;;;;;;5009840;28;20796;-71
2021/07/17 07:08:36;;;;;;;33.30;16.25;;;19.90;96.20;;;;;;5010737;28;20164;-71
2021/07/17 07:11:03;;;;;;;36.38;16.27;;;20.00;96.20;;;;;;5011271;28;20188;-70
2021/07/17 07:13:28;;;;;;;33.17;15.98;;;20.10;95.90;;;;;;5011784;28;20041;-70
2021/07/17 07:15:54;;;;;;;36.28;16.85;;;20.10;95.90;;;;;;5010733;28;20018;-71
2021/07/17 07:18:19;;;;;;;39.17;17.25;;;20.20;95.70;;;;;;5010829;28;20036;-71
2021/07/17 07:20:45;;;;;;;40.08;16.35;;;20.10;95.80;;;;;;5010466;28;20108;-71
2021/07/17 07:23:11;;;;;;;34.38;16.23;;;20.00;95.70;;;;;;5009664;28;20033;-70
2021/07/17 07:25:37;;;;;;;32.97;15.38;;;19.90;95.90;;;;;;5011502;28;20022;-71
2021/07/17 07:28:03;;;;;;;34.97;15.70;;;19.80;96.10;;;;;;5009796;28;20030;-71
2021/07/17 07:30:28;;;;;;;35.10;15.75;;;19.80;96.20;;;;;;5011408;28;20026;-71
2021/07/17 07:32:54;;;;;;;26.85;14.45;;;19.90;96.10;;;;;;5010756;28;20041;-71
2021/07/17 07:35:21;;;;;;;31.38;15.23;;;19.90;96.00;;;;;;5011105;28;20080;-71
2021/07/17 07:37:48;;;;;;;30.60;14.63;;;19.90;96.00;;;;;;5009331;28;20500;-71
2021/07/17 07:40:15;;;;;;;29.02;14.65;;;19.90;96.10;;;;;;5009616;28;20029;-71
2021/07/17 07:42:40;;;;;;;23.75;14.02;;;20.10;96.00;;;;;;5011471;28;20507;-72
2021/07/17 07:45:07;;;;;;;31.20;14.95;;;20.20;95.70;;;;;;5009978;28;20041;-71
2021/07/17 07:47:33;;;;;;;28.02;14.52;;;20.20;95.60;;;;;;5008542;28;20123;-71
2021/07/17 07:49:58;;;;;;;31.25;15.55;;;20.20;95.60;;;;;;5010947;28;20144;-72
2021/07/17 07:52:24;;;;;;;29.10;14.60;;;20.20;95.70;;;;;;5008522;28;20035;-71
2021/07/17 07:54:51;;;;;;;21.48;13.95;;;20.20;95.70;;;;;;5010540;28;20048;-72
2021/07/17 07:57:17;;;;;;;25.92;14.68;;;20.20;95.60;;;;;;5008660;28;20026;-71
2021/07/17 07:59:42;;;;;;;29.38;13.63;;;20.30;95.70;;;;;;5009728;28;20180;-72
2021/07/17 08:02:08;;;;;;;27.42;14.18;;;20.40;95.60;;;;;;5009712;28;20400;-72
2021/07/17 08:04:34;;;;;;;24.75;11.93;;;20.50;95.50;;;;;;5010674;28;20871;-72
2021/07/17 08:06:59;;;;;;;31.85;13.27;;;20.60;95.50;;;;;;5010786;28;20769;-72
2021/07/17 08:09:25;;;;;;;27.73;13.90;;;20.80;95.30;;;;;;5008614;28;20030;-72
2021/07/17 08:11:51;;;;;;;21.42;12.70;;;20.80;94.70;;;;;;5010595;28;20057;-71
2021/07/17 08:14:17;;;;;;;29.92;13.05;;;20.80;94.60;;;;;;5010061;28;20032;-72
2021/07/17 08:16:42;;;;;;;26.55;12.55;;;20.80;94.90;;;;;;5008451;28;20014;-72
2021/07/17 08:19:08;;;;;;;22.95;12.98;;;20.90;94.80;;;;;;5009097;28;20067;-72
2021/07/17 08:21:34;;;;;;;22.23;13.02;;;21.00;94.40;;;;;;5011130;28;20783;-72
2021/07/17 08:23:59;;;;;;;21.63;12.32;;;21.00;94.40;;;;;;5010445;28;20036;-72
2021/07/17 08:26:25;;;;;;;23.70;12.95;;;21.10;94.20;;;;;;5008231;28;20033;-73
2021/07/17 08:28:52;;;;;;;23.13;13.00;;;21.20;94.30;;;;;;5009389;28;20116;-76
2021/07/17 08:31:18;;;;;;;23.33;13.00;;;21.30;94.20;;;;;;5009260;28;20042;-77
2021/07/17 08:33:43;;;;;;;20.27;12.13;;;21.40;94.00;;;;;;5009225;28;20032;-75
2021/07/17 08:36:09;;;;;;;28.35;12.80;;;21.30;93.70;;;;;;5008480;28;20026;-76
2021/07/17 08:38:34;;;;;;;22.67;11.57;;;21.30;94.00;;;;;;5009880;28;20084;-74
2021/07/17 08:41:01;;;;;;;27.13;12.02;;;21.30;93.90;;;;;;5010641;28;20484;-75
2021/07/17 08:43:27;;;;;;;31.35;11.75;;;21.40;93.70;;;;;;5007588;28;20435;-74
2021/07/17 08:45:52;;;;;;;29.55;12.55;;;21.40;93.90;;;;;;5008757;28;20018;-75
2021/07/17 08:48:20;;;;;;;22.60;11.63;;;21.40;93.90;;;;;;5009075;28;20592;-72
2021/07/17 08:50:47;;;;;;;20.38;11.00;;;21.50;93.70;;;;;;5008773;28;20033;-75
2021/07/17 08:53:17;;;;;;;24.35;12.15;;;21.60;93.30;;;;;;5008078;28;20029;-75
2021/07/17 08:55:42;;;;;;;28.15;12.68;;;21.60;93.30;;;;;;5001844;28;20068;-75
2021/07/17 08:58:08;;;;;;;22.30;10.80;;;21.50;93.50;;;;;;5009945;28;20527;-75
2021/07/17 09:00:36;;;;;;;21.75;12.18;;;21.50;93.60;;;;;;5008760;28;20855;-74
2021/07/17 09:03:06;;;;;;;18.02;10.85;;;21.50;93.50;;;;;;5008439;28;20041;-74
2021/07/17 09:05:36;;;;;;;24.10;10.38;;;21.60;93.60;;;;;;5008196;28;20065;-76
2021/07/17 09:08:02;;;;;;;17.88;12.05;;;21.60;93.20;;;;;;5000485;28;20492;-75
2021/07/17 09:10:43;;;;;;;17.70;11.48;;;21.60;93.10;;;;;;5010242;28;20819;-76
2021/07/17 09:13:09;;;;;;;23.55;10.77;;;21.60;93.30;;;;;;5006285;28;20030;-75
2021/07/17 09:15:35;;;;;;;15.48;9.20;;;21.50;93.40;;;;;;5011832;28;20030;-76
2021/07/17 09:18:04;;;;;;;15.82;9.15;;;21.60;93.50;;;;;;5009042;28;20037;-76
2021/07/17 09:20:30;;;;;;;15.50;10.18;;;21.80;93.40;;;;;;5008375;28;20030;-76
2021/07/17 09:22:58;;;;;;;16.80;9.85;;;21.90;92.80;;;;;;5023054;28;20402;-75
2021/07/17 09:25:24;;;;;;;16.42;9.65;;;22.00;92.90;;;;;;5006023;28;20036;-76
2021/07/17 09:27:49;;;;;;;17.20;10.07;;;22.20;92.60;;;;;;5008325;28;20023;-75
2021/07/17 09:30:33;;;;;;;13.43;8.95;;;22.30;92.10;;;;;;5009002;28;20057;-77
2021/07/17 09:33:01;;;;;;;20.60;9.38;;;22.40;91.80;;;;;;5007845;28;20509;-75
2021/07/17 09:35:27;;;;;;;15.52;9.45;;;22.30;91.80;;;;;;5007057;28;20037;-75
2021/07/17 09:37:55;;;;;;;16.85;9.55;;;22.40;91.70;;;;;;5008201;28;20026;-75
2021/07/17 09:40:21;;;;;;;15.00;8.50;;;22.50;91.90;;;;;;5008855;28;20028;-75
2021/07/17 09:42:46;;;;;;;16.67;8.88;;;22.60;91.60;;;;;;5007733;28;20022;-75
2021/07/17 09:45:12;;;;;;;15.15;9.70;;;22.60;91.40;;;;;;5008096;28;20121;-75
2021/07/17 09:47:38;;;;;;;16.67;9.52;;;22.60;91.30;;;;;;5007965;28;20030;-74
2021/07/17 09:50:15;;;;;;;13.98;9.02;;;22.70;91.30;;;;;;5007788;28;20103;-75
2021/07/17 09:52:41;;;;;;;18.52;10.07;;;22.70;91.10;;;;;;5004622;28;20026;-75
2021/07/17 09:55:11;;;;;;;13.00;8.98;;;22.80;91.40;;;;;;5003452;28;20135;-71
2021/07/17 09:57:37;;;;;;;12.55;8.80;;;22.90;91.30;;;;;;5006967;28;20033;-73
2021/07/17 10:00:13;;;;;;;16.13;9.45;;;23.20;91.30;;;;;;5007584;28;20022;-73
2021/07/17 10:02:40;;;;;;;13.40;9.30;;;23.40;91.00;;;;;;5023656;28;20473;-73
2021/07/17 10:05:07;;;;;;;15.98;8.35;;;23.60;90.50;;;;;;5007791;28;20448;-73
2021/07/17 10:07:33;;;;;;;18.70;9.40;;;23.80;90.90;;;;;;5008675;28;20029;-73
2021/07/17 10:09:59;;;;;;;16.80;8.63;;;24.00;90.30;;;;;;5007274;28;20045;-73
2021/07/17 10:12:33;;;;;;;17.00;8.10;;;24.00;89.00;;;;;;5008643;28;20038;-73
2021/07/17 10:14:59;;;;;;;13.50;7.95;;;23.90;89.60;;;;;;5008572;28;20054;-73
2021/07/17 10:17:34;;;;;;;9.63;7.50;;;23.80;89.30;;;;;;5008656;28;20057;-73
2021/07/17 10:20:02;;;;;;;13.23;7.38;;;23.80;89.30;;;;;;5008533;28;20295;-73
2021/07/17 10:22:28;;;;;;;13.82;7.80;;;23.80;89.30;;;;;;5008732;28;20397;-74
2021/07/17 10:24:54;;;;;;;11.95;7.05;;;23.80;89.30;;;;;;5008341;28;20041;-73
2021/07/17 10:27:20;;;;;;;13.00;7.40;;;23.80;89.50;;;;;;5011068;28;20124;-73
2021/07/17 10:29:46;;;;;;;10.38;7.15;;;23.80;89.50;;;;;;5011684;28;20567;-73
2021/07/17 10:32:11;;;;;;;16.35;7.88;;;23.90;89.60;;;;;;5010373;28;20505;-73
2021/07/17 10:34:37;;;;;;;14.68;6.85;;;24.00;89.60;;;;;;5012119;28;20034;-73
2021/07/17 10:37:13;;;;;;;14.65;6.85;;;24.40;89.60;;;;;;5012366;28;20025;-73
2021/07/17 10:39:44;;;;;;;10.70;6.85;;;24.60;88.30;;;;;;5026791;28;20029;-73
2021/07/17 10:42:15;;;;;;;11.18;6.40;;;24.70;88.10;;;;;;5010752;28;20030;-73
2021/07/17 10:44:52;;;;;;;9.65;6.03;;;24.90;87.10;;;;;;5011911;28;20030;-73
2021/07/17 10:47:19;;;;;;;9.25;5.95;;;24.90;87.50;;;;;;5011584;28;20116;-73
2021/07/17 10:49:47;;;;;;;6.68;5.18;;;24.90;87.10;;;;;;5011383;28;20026;-73
2021/07/17 10:52:13;;;;;;;12.90;5.75;;;24.90;86.90;;;;;;5010274;28;20041;-73
2021/07/17 10:54:39;;;;;;;8.57;6.72;;;25.00;87.20;;;;;;5011511;28;20038;-73
2021/07/17 10:57:06;;;;;;;7.78;5.63;;;25.10;86.00;;;;;;5010994;28;20586;-73
2021/07/17 10:59:32;;;;;;;7.60;5.32;;;25.10;86.70;;;;;;5010061;28;20080;-73
2021/07/17 11:01:58;;;;;;;9.40;5.22;;;25.30;85.90;;;;;;5011454;28;20022;-73
2021/07/17 11:04:44;;;;;;;10.02;5.53;;;25.30;85.50;;;;;;5011441;28;20034;-73
2021/07/17 11:07:18;;;;;;;11.68;5.70;;;25.30;85.10;;;;;;5011845;28;20022;-73
2021/07/17 11:10:02;;;;;;;9.13;4.78;;;25.40;84.70;;;;;;5011303;28;20029;-73
2021/07/17 11:12:31;;;;;;;7.10;4.32;;;25.40;82.00;;;;;;5009880;28;20029;-73
2021/07/17 11:15:19;;;;;;;4.68;4.10;;;25.40;81.30;;;;;;5026326;28;20030;-73
2021/07/17 11:17:46;;;;;;;7.82;4.22;;;25.50;79.50;;;;;;5011695;28;20381;-73
2021/07/17 11:20:32;;;;;;;5.13;3.95;;;25.50;78.60;;;;;;5010764;28;20100;-73
2021/07/17 11:23:11;;;;;;;4.43;4.03;;;25.50;78.90;;;;;;5011359;28;20069;-73
2021/07/17 11:25:37;;;;;;;7.60;4.70;;;25.50;78.70;;;;;;5010049;28;20413;-73
2021/07/17 11:28:03;;;;;;;6.07;3.92;;;25.70;78.30;;;;;;5010141;28;20034;-73
2021/07/17 11:30:35;;;;;;;5.65;3.70;;;25.80;78.40;;;;;;5010492;28;20029;-73
2021/07/17 11:33:07;;;;;;;7.03;3.90;;;26.00;77.80;;;;;;5010923;28;20026;-73
2021/07/17 11:35:38;;;;;;;4.93;3.30;;;26.20;77.20;;;;;;5008693;28;20037;-73
2021/07/17 11:38:05;;;;;;;3.20;2.90;;;26.20;73.60;;;;;;5010762;28;20499;-73
2021/07/17 11:40:31;;;;;;;3.13;2.72;;;26.30;71.60;;;;;;5010753;28;20022;-73
2021/07/17 11:43:25;;;;;;;5.78;2.25;;;26.30;70.10;;;;;;5010591;28;20026;-74
2021/07/17 11:45:51;;;;;;;5.93;2.20;;;26.40;69.00;;;;;;5008281;28;20068;-73
2021/07/17 11:48:16;;;;;;;5.40;2.40;;;26.40;68.70;;;;;;5010474;28;20081;-73
2021/07/17 11:50:46;;;;;;;3.30;1.77;;;26.40;69.60;;;;;;5010388;28;20376;-73
2021/07/17 11:53:12;;;;;;;6.70;1.92;;;26.50;68.20;;;;;;5010832;28;20036;-73
2021/07/17 11:55:38;;;;;;;4.35;2.28;;;26.50;67.30;;;;;;5010862;28;20029;-73
2021/07/17 11:58:14;;;;;;;3.53;1.77;;;26.40;67.20;;;;;;5010732;28;20030;-73
2021/07/17 12:00:39;;;;;;;3.30;1.60;;;26.40;67.30;;;;;;5008711;28;20026;-73
2021/07/17 12:03:05;;;;;;;6.68;1.90;;;26.40;68.00;;;;;;5007838;28;20030;-73
2021/07/17 12:05:30;;;;;;;2.70;1.90;;;26.40;67.50;;;;;;5010079;28;20038;-73
2021/07/17 12:07:57;;;;;;;4.28;1.52;;;26.40;66.70;;;;;;5007021;28;20540;-74
2021/07/17 12:10:25;;;;;;;3.65;1.88;;;26.40;65.90;;;;;;5000599;28;20037;-76
2021/07/17 12:13:05;;;;;;;4.95;1.38;;;26.40;67.00;;;;;;5005661;28;20042;-75
2021/07/17 12:15:35;;;;;;;4.05;1.40;;;26.50;64.30;;;;;;5006412;28;20038;-74
2021/07/17 12:18:10;;;;;;;2.38;1.30;;;26.60;63.60;;;;;;5004985;28;20378;-75
2021/07/17 12:20:44;;;;;;;3.72;1.23;;;26.70;63.10;;;;;;4997894;28;20022;-73
2021/07/17 12:23:24;;;;;;;8.00;1.65;;;26.80;63.20;;;;;;5008636;28;20026;-74
2021/07/17 12:25:59;;;;;;;6.32;1.15;;;26.80;63.80;;;;;;5005856;28;20103;-74
2021/07/17 12:28:36;;;;;;;4.10;1.75;;;26.80;62.80;;;;;;5006858;28;20030;-74
2021/07/17 12:31:10;;;;;;;3.63;0.85;;;26.80;63.00;;;;;;5005893;28;20048;-76